sensor_id;sensor_type;location;lat;lon;timestamp;P1;durP1;ratioP1;P2;durP2;ratioP2
20855;SDS011;10588;49.542;8.444;2022-08-02T00:01:49;1.40;;;1.10;;
20855;SDS011;10588;49.542;8.444;2022-08-02T00:04:14;1.00;;;0.90;;
20855;SDS011;10588;49.542;8.444;2022-08-02T00:06:40;1.10;;;1.05;;
20855;SDS011;10588;49.542;8.444;2022-08-02T00:09:06;1.00;;;0.90;;
20855;SDS011;10588;49.542;8.444;2022-08-02T00:11:32;1.05;;;1.00;;
20855;SDS011;10588;49.542;8.444;2022-08-02T00:13:57;1.23;;;1.13;;
20855;SDS011;10588;49.542;8.444;2022-08-02T00:16:23;1.20;;;1.10;;
20855;SDS011;10588;49.542;8.444;2022-08-02T00:18:49;0.93;;;0.90;;
20855;SDS011;10588;49.542;8.444;2022-08-02T00:21:15;1.40;;;1.20;;
20855;SDS011;10588;49.542;8.444;2022-08-02T00:23:40;1.65;;;1.10;;
20855;SDS011;10588;49.542;8.444;2022-08-02T00:26:06;1.30;;;1.20;;
20855;SDS011;10588;49.542;8.444;2022-08-02T00:28:32;2.17;;;1.30;;
20855;SDS011;10588;49.542;8.444;2022-08-02T00:30:57;1.25;;;1.15;;
20855;SDS011;10588;49.542;8.444;2022-08-02T00:33:23;1.38;;;1.25;;
20855;SDS011;10588;49.542;8.444;2022-08-02T00:35:50;2.25;;;1.10;;
20855;SDS011;10588;49.542;8.444;2022-08-02T00:38:15;1.20;;;1.02;;
20855;SDS011;10588;49.542;8.444;2022-08-02T00:40:46;1.08;;;0.98;;
20855;SDS011;10588;49.542;8.444;2022-08-02T00:43:12;1.42;;;1.20;;
20855;SDS011;10588;49.542;8.444;2022-08-02T00:45:38;1.10;;;1.00;;
20855;SDS011;10588;49.542;8.444;2022-08-02T00:48:06;0.98;;;0.90;;
20855;SDS011;10588;49.542;8.444;2022-08-02T00:50:33;1.17;;;1.08;;
20855;SDS011;10588;49.542;8.444;2022-08-02T00:52:59;1.20;;;1.00;;
20855;SDS011;10588;49.542;8.444;2022-08-02T00:55:25;1.20;;;1.10;;
20855;SDS011;10588;49.542;8.444;2022-08-02T00:57:52;2.97;;;1.10;;
20855;SDS011;10588;49.542;8.444;2022-08-02T01:00:17;1.10;;;1.00;;
20855;SDS011;10588;49.542;8.444;2022-08-02T01:02:44;1.70;;;1.50;;
20855;SDS011;10588;49.542;8.444;2022-08-02T01:05:10;1.10;;;1.00;;
20855;SDS011;10588;49.542;8.444;2022-08-02T01:07:36;1.08;;;0.95;;
20855;SDS011;10588;49.542;8.444;2022-08-02T01:10:03;1.85;;;1.10;;
20855;SDS011;10588;49.542;8.444;2022-08-02T01:12:29;2.00;;;1.05;;
20855;SDS011;10588;49.542;8.444;2022-08-02T01:14:55;1.45;;;1.35;;
20855;SDS011;10588;49.542;8.444;2022-08-02T01:31:26;1.60;;;1.02;;
20855;SDS011;10588;49.542;8.444;2022-08-02T01:36:29;1.20;;;1.10;;
20855;SDS011;10588;49.542;8.444;2022-08-02T01:38:58;2.45;;;1.00;;
20855;SDS011;10588;49.542;8.444;2022-08-02T01:41:25;0.93;;;0.90;;
20855;SDS011;10588;49.542;8.444;2022-08-02T01:43:56;1.65;;;1.27;;
20855;SDS011;10588;49.542;8.444;2022-08-02T01:46:23;1.35;;;0.85;;
20855;SDS011;10588;49.542;8.444;2022-08-02T01:48:52;1.40;;;1.30;;
20855;SDS011;10588;49.542;8.444;2022-08-02T01:51:20;1.52;;;1.17;;
20855;SDS011;10588;49.542;8.444;2022-08-02T01:54:10;1.30;;;1.20;;
20855;SDS011;10588;49.542;8.444;2022-08-02T01:56:39;3.00;;;1.05;;
20855;SDS011;10588;49.542;8.444;2022-08-02T01:59:07;2.22;;;1.08;;
20855;SDS011;10588;49.542;8.444;2022-08-02T02:01:37;1.10;;;1.00;;
20855;SDS011;10588;49.542;8.444;2022-08-02T02:04:04;2.03;;;1.15;;
20855;SDS011;10588;49.542;8.444;2022-08-02T02:06:32;1.98;;;1.20;;
20855;SDS011;10588;49.542;8.444;2022-08-02T02:09:00;1.58;;;0.95;;
20855;SDS011;10588;49.542;8.444;2022-08-02T02:11:27;1.67;;;1.08;;
20855;SDS011;10588;49.542;8.444;2022-08-02T02:13:53;1.20;;;0.90;;
20855;SDS011;10588;49.542;8.444;2022-08-02T02:16:25;1.10;;;1.00;;
20855;SDS011;10588;49.542;8.444;2022-08-02T02:18:51;1.10;;;1.00;;
20855;SDS011;10588;49.542;8.444;2022-08-02T02:21:18;1.10;;;1.00;;
20855;SDS011;10588;49.542;8.444;2022-08-02T02:23:43;1.77;;;1.00;;
20855;SDS011;10588;49.542;8.444;2022-08-02T02:26:10;1.15;;;1.05;;
20855;SDS011;10588;49.542;8.444;2022-08-02T02:28:39;1.13;;;1.00;;
20855;SDS011;10588;49.542;8.444;2022-08-02T02:31:06;1.17;;;1.05;;
20855;SDS011;10588;49.542;8.444;2022-08-02T02:33:40;1.30;;;1.00;;
20855;SDS011;10588;49.542;8.444;2022-08-02T02:36:23;1.80;;;1.00;;
20855;SDS011;10588;49.542;8.444;2022-08-02T02:38:49;2.83;;;0.98;;
20855;SDS011;10588;49.542;8.444;2022-08-02T02:41:17;1.40;;;1.05;;
20855;SDS011;10588;49.542;8.444;2022-08-02T02:43:45;0.85;;;0.85;;
20855;SDS011;10588;49.542;8.444;2022-08-02T02:46:11;1.02;;;0.93;;
20855;SDS011;10588;49.542;8.444;2022-08-02T02:48:37;1.00;;;0.90;;
20855;SDS011;10588;49.542;8.444;2022-08-02T02:51:05;1.05;;;0.90;;
20855;SDS011;10588;49.542;8.444;2022-08-02T02:53:31;1.10;;;1.00;;
20855;SDS011;10588;49.542;8.444;2022-08-02T02:55:59;1.35;;;1.00;;
20855;SDS011;10588;49.542;8.444;2022-08-02T02:58:25;1.10;;;1.00;;
20855;SDS011;10588;49.542;8.444;2022-08-02T03:00:51;0.90;;;0.75;;
20855;SDS011;10588;49.542;8.444;2022-08-02T03:03:37;1.15;;;0.95;;
20855;SDS011;10588;49.542;8.444;2022-08-02T03:06:03;1.02;;;0.90;;
20855;SDS011;10588;49.542;8.444;2022-08-02T03:08:29;2.53;;;1.17;;
20855;SDS011;10588;49.542;8.444;2022-08-02T03:10:55;1.40;;;1.00;;
20855;SDS011;10588;49.542;8.444;2022-08-02T03:13:21;1.00;;;0.90;;
20855;SDS011;10588;49.542;8.444;2022-08-02T03:15:47;1.10;;;1.00;;
20855;SDS011;10588;49.542;8.444;2022-08-02T03:18:30;1.38;;;0.65;;
20855;SDS011;10588;49.542;8.444;2022-08-02T03:21:01;0.90;;;0.85;;
20855;SDS011;10588;49.542;8.444;2022-08-02T03:23:28;1.48;;;0.80;;
20855;SDS011;10588;49.542;8.444;2022-08-02T03:25:54;1.45;;;0.95;;
20855;SDS011;10588;49.542;8.444;2022-08-02T03:28:19;1.00;;;0.77;;
20855;SDS011;10588;49.542;8.444;2022-08-02T03:30:45;1.10;;;1.00;;
20855;SDS011;10588;49.542;8.444;2022-08-02T03:33:10;1.55;;;1.00;;
20855;SDS011;10588;49.542;8.444;2022-08-02T03:35:37;1.10;;;0.93;;
20855;SDS011;10588;49.542;8.444;2022-08-02T03:38:04;1.13;;;0.98;;
20855;SDS011;10588;49.542;8.444;2022-08-02T03:40:30;1.05;;;0.98;;
20855;SDS011;10588;49.542;8.444;2022-08-02T03:42:56;1.40;;;1.05;;
20855;SDS011;10588;49.542;8.444;2022-08-02T03:45:23;1.40;;;1.30;;
20855;SDS011;10588;49.542;8.444;2022-08-02T03:47:50;1.27;;;1.00;;
20855;SDS011;10588;49.542;8.444;2022-08-02T03:50:16;1.20;;;1.08;;
20855;SDS011;10588;49.542;8.444;2022-08-02T03:52:43;1.10;;;1.00;;
20855;SDS011;10588;49.542;8.444;2022-08-02T03:55:10;0.90;;;0.90;;
20855;SDS011;10588;49.542;8.444;2022-08-02T03:57:37;1.55;;;1.17;;
20855;SDS011;10588;49.542;8.444;2022-08-02T04:00:05;0.95;;;0.95;;
20855;SDS011;10588;49.542;8.444;2022-08-02T04:02:32;2.25;;;1.00;;
20855;SDS011;10588;49.542;8.444;2022-08-02T04:04:57;1.40;;;0.90;;
20855;SDS011;10588;49.542;8.444;2022-08-02T04:07:23;1.08;;;0.98;;
20855;SDS011;10588;49.542;8.444;2022-08-02T04:09:48;1.10;;;1.00;;
20855;SDS011;10588;49.542;8.444;2022-08-02T04:12:14;1.30;;;0.90;;
20855;SDS011;10588;49.542;8.444;2022-08-02T04:14:40;1.10;;;1.00;;
20855;SDS011;10588;49.542;8.444;2022-08-02T04:17:06;1.00;;;0.90;;
20855;SDS011;10588;49.542;8.444;2022-08-02T04:19:41;1.20;;;1.00;;
20855;SDS011;10588;49.542;8.444;2022-08-02T04:22:11;2.95;;;1.05;;
20855;SDS011;10588;49.542;8.444;2022-08-02T04:24:42;1.20;;;1.02;;
20855;SDS011;10588;49.542;8.444;2022-08-02T04:27:11;2.30;;;1.30;;
20855;SDS011;10588;49.542;8.444;2022-08-02T04:29:37;1.13;;;1.02;;
20855;SDS011;10588;49.542;8.444;2022-08-02T04:32:04;1.25;;;1.10;;
20855;SDS011;10588;49.542;8.444;2022-08-02T04:34:31;1.90;;;0.88;;
20855;SDS011;10588;49.542;8.444;2022-08-02T04:36:57;1.35;;;0.90;;
20855;SDS011;10588;49.542;8.444;2022-08-02T04:39:23;1.10;;;0.98;;
20855;SDS011;10588;49.542;8.444;2022-08-02T04:41:49;1.08;;;1.00;;
20855;SDS011;10588;49.542;8.444;2022-08-02T04:44:15;1.00;;;0.80;;
20855;SDS011;10588;49.542;8.444;2022-08-02T04:46:40;1.08;;;0.90;;
20855;SDS011;10588;49.542;8.444;2022-08-02T04:49:07;1.20;;;1.10;;
20855;SDS011;10588;49.542;8.444;2022-08-02T04:51:40;0.93;;;0.93;;
20855;SDS011;10588;49.542;8.444;2022-08-02T04:54:07;0.82;;;0.82;;
20855;SDS011;10588;49.542;8.444;2022-08-02T04:56:33;1.27;;;0.80;;
20855;SDS011;10588;49.542;8.444;2022-08-02T04:58:59;1.15;;;0.90;;
20855;SDS011;10588;49.542;8.444;2022-08-02T05:01:25;1.20;;;1.10;;
20855;SDS011;10588;49.542;8.444;2022-08-02T05:03:51;0.88;;;0.80;;
20855;SDS011;10588;49.542;8.444;2022-08-02T05:06:16;0.95;;;0.82;;
20855;SDS011;10588;49.542;8.444;2022-08-02T05:08:44;0.80;;;0.80;;
20855;SDS011;10588;49.542;8.444;2022-08-02T05:11:10;0.90;;;0.80;;
20855;SDS011;10588;49.542;8.444;2022-08-02T05:13:35;1.00;;;0.90;;
20855;SDS011;10588;49.542;8.444;2022-08-02T05:16:01;1.05;;;0.90;;
20855;SDS011;10588;49.542;8.444;2022-08-02T05:18:28;1.15;;;0.93;;
20855;SDS011;10588;49.542;8.444;2022-08-02T05:20:54;0.80;;;0.70;;
20855;SDS011;10588;49.542;8.444;2022-08-02T05:23:20;1.10;;;0.70;;
20855;SDS011;10588;49.542;8.444;2022-08-02T05:25:46;1.38;;;0.90;;
20855;SDS011;10588;49.542;8.444;2022-08-02T05:28:11;0.90;;;0.90;;
20855;SDS011;10588;49.542;8.444;2022-08-02T05:30:40;1.38;;;1.00;;
20855;SDS011;10588;49.542;8.444;2022-08-02T05:33:05;0.85;;;0.82;;
20855;SDS011;10588;49.542;8.444;2022-08-02T05:35:31;1.05;;;0.80;;
20855;SDS011;10588;49.542;8.444;2022-08-02T05:37:57;2.17;;;1.23;;
20855;SDS011;10588;49.542;8.444;2022-08-02T05:40:23;1.13;;;1.00;;
20855;SDS011;10588;49.542;8.444;2022-08-02T05:42:49;1.10;;;1.00;;
20855;SDS011;10588;49.542;8.444;2022-08-02T05:45:14;1.10;;;0.95;;
20855;SDS011;10588;49.542;8.444;2022-08-02T05:47:40;1.00;;;0.90;;
20855;SDS011;10588;49.542;8.444;2022-08-02T05:50:06;2.08;;;1.00;;
20855;SDS011;10588;49.542;8.444;2022-08-02T05:55:30;1.30;;;0.80;;
20855;SDS011;10588;49.542;8.444;2022-08-02T06:00:30;1.35;;;0.77;;
20855;SDS011;10588;49.542;8.444;2022-08-02T06:03:06;0.88;;;0.88;;
20855;SDS011;10588;49.542;8.444;2022-08-02T06:05:40;0.88;;;0.80;;
20855;SDS011;10588;49.542;8.444;2022-08-02T06:08:40;1.08;;;0.90;;
20855;SDS011;10588;49.542;8.444;2022-08-02T06:11:09;2.35;;;1.05;;
20855;SDS011;10588;49.542;8.444;2022-08-02T06:13:38;0.82;;;0.82;;
20855;SDS011;10588;49.542;8.444;2022-08-02T06:16:07;1.00;;;0.90;;
20855;SDS011;10588;49.542;8.444;2022-08-02T06:18:34;0.93;;;0.90;;
20855;SDS011;10588;49.542;8.444;2022-08-02T06:21:02;1.55;;;1.05;;
20855;SDS011;10588;49.542;8.444;2022-08-02T06:23:29;1.10;;;1.00;;
20855;SDS011;10588;49.542;8.444;2022-08-02T06:25:56;1.13;;;1.02;;
20855;SDS011;10588;49.542;8.444;2022-08-02T06:28:23;1.92;;;1.30;;
20855;SDS011;10588;49.542;8.444;2022-08-02T06:30:50;1.70;;;1.10;;
20855;SDS011;10588;49.542;8.444;2022-08-02T06:33:16;3.67;;;1.20;;
20855;SDS011;10588;49.542;8.444;2022-08-02T06:35:47;1.48;;;1.10;;
20855;SDS011;10588;49.542;8.444;2022-08-02T06:38:21;2.45;;;1.10;;
20855;SDS011;10588;49.542;8.444;2022-08-02T06:41:09;1.30;;;1.00;;
20855;SDS011;10588;49.542;8.444;2022-08-02T06:46:20;2.83;;;0.95;;
20855;SDS011;10588;49.542;8.444;2022-08-02T06:48:46;1.33;;;1.00;;
20855;SDS011;10588;49.542;8.444;2022-08-02T06:51:12;1.42;;;1.00;;
20855;SDS011;10588;49.542;8.444;2022-08-02T06:53:38;1.27;;;0.80;;
20855;SDS011;10588;49.542;8.444;2022-08-02T06:56:04;1.55;;;0.90;;
20855;SDS011;10588;49.542;8.444;2022-08-02T06:58:30;2.45;;;1.10;;
20855;SDS011;10588;49.542;8.444;2022-08-02T07:00:55;1.83;;;1.15;;
20855;SDS011;10588;49.542;8.444;2022-08-02T07:03:21;1.38;;;1.05;;
20855;SDS011;10588;49.542;8.444;2022-08-02T07:05:49;1.33;;;0.98;;
20855;SDS011;10588;49.542;8.444;2022-08-02T07:08:15;3.45;;;1.20;;
20855;SDS011;10588;49.542;8.444;2022-08-02T07:10:41;2.85;;;0.93;;
20855;SDS011;10588;49.542;8.444;2022-08-02T07:13:07;2.90;;;1.00;;
20855;SDS011;10588;49.542;8.444;2022-08-02T07:15:33;1.38;;;0.90;;
20855;SDS011;10588;49.542;8.444;2022-08-02T07:17:58;1.65;;;0.90;;
20855;SDS011;10588;49.542;8.444;2022-08-02T07:20:24;1.40;;;0.88;;
20855;SDS011;10588;49.542;8.444;2022-08-02T07:22:49;1.52;;;0.98;;
20855;SDS011;10588;49.542;8.444;2022-08-02T07:25:15;2.15;;;1.00;;
20855;SDS011;10588;49.542;8.444;2022-08-02T07:27:41;1.75;;;0.90;;
20855;SDS011;10588;49.542;8.444;2022-08-02T07:30:07;1.33;;;1.00;;
20855;SDS011;10588;49.542;8.444;2022-08-02T07:32:33;1.83;;;0.90;;
20855;SDS011;10588;49.542;8.444;2022-08-02T07:34:59;4.18;;;1.27;;
20855;SDS011;10588;49.542;8.444;2022-08-02T07:37:26;7.80;;;1.40;;
20855;SDS011;10588;49.542;8.444;2022-08-02T07:39:55;6.82;;;1.48;;
20855;SDS011;10588;49.542;8.444;2022-08-02T07:42:20;2.10;;;1.13;;
20855;SDS011;10588;49.542;8.444;2022-08-02T07:44:46;1.65;;;1.05;;
20855;SDS011;10588;49.542;8.444;2022-08-02T07:47:12;3.55;;;1.13;;
20855;SDS011;10588;49.542;8.444;2022-08-02T07:49:37;1.83;;;1.08;;
20855;SDS011;10588;49.542;8.444;2022-08-02T07:52:03;14.15;;;1.40;;
20855;SDS011;10588;49.542;8.444;2022-08-02T07:54:29;6.72;;;0.95;;
20855;SDS011;10588;49.542;8.444;2022-08-02T07:56:54;54.10;;;3.90;;
20855;SDS011;10588;49.542;8.444;2022-08-02T07:59:20;3.60;;;1.30;;
20855;SDS011;10588;49.542;8.444;2022-08-02T08:01:46;12.40;;;1.55;;
20855;SDS011;10588;49.542;8.444;2022-08-02T08:04:13;3.08;;;1.10;;
20855;SDS011;10588;49.542;8.444;2022-08-02T08:06:39;3.05;;;1.17;;
20855;SDS011;10588;49.542;8.444;2022-08-02T08:09:05;0.90;;;0.73;;
20855;SDS011;10588;49.542;8.444;2022-08-02T08:11:30;3.55;;;1.20;;
20855;SDS011;10588;49.542;8.444;2022-08-02T08:13:56;4.70;;;1.10;;
20855;SDS011;10588;49.542;8.444;2022-08-02T08:16:22;4.22;;;0.80;;
20855;SDS011;10588;49.542;8.444;2022-08-02T08:18:50;8.80;;;1.10;;
20855;SDS011;10588;49.542;8.444;2022-08-02T08:21:16;4.40;;;1.20;;
20855;SDS011;10588;49.542;8.444;2022-08-02T08:23:41;1.77;;;0.80;;
20855;SDS011;10588;49.542;8.444;2022-08-02T08:26:07;6.20;;;1.00;;
20855;SDS011;10588;49.542;8.444;2022-08-02T08:28:33;4.65;;;0.90;;
20855;SDS011;10588;49.542;8.444;2022-08-02T08:30:59;4.20;;;0.90;;
20855;SDS011;10588;49.542;8.444;2022-08-02T08:33:25;5.32;;;1.00;;
20855;SDS011;10588;49.542;8.444;2022-08-02T08:35:51;1.67;;;0.85;;
20855;SDS011;10588;49.542;8.444;2022-08-02T08:38:17;4.95;;;0.90;;
20855;SDS011;10588;49.542;8.444;2022-08-02T08:40:43;1.55;;;0.80;;
20855;SDS011;10588;49.542;8.444;2022-08-02T08:43:10;10.20;;;1.35;;
20855;SDS011;10588;49.542;8.444;2022-08-02T08:45:38;3.17;;;0.77;;
20855;SDS011;10588;49.542;8.444;2022-08-02T08:48:06;2.25;;;0.80;;
20855;SDS011;10588;49.542;8.444;2022-08-02T08:50:37;2.65;;;0.68;;
20855;SDS011;10588;49.542;8.444;2022-08-02T08:53:07;1.60;;;0.63;;
20855;SDS011;10588;49.542;8.444;2022-08-02T08:55:34;4.40;;;0.75;;
20855;SDS011;10588;49.542;8.444;2022-08-02T08:58:01;3.10;;;0.90;;
20855;SDS011;10588;49.542;8.444;2022-08-02T09:00:28;1.85;;;0.73;;
20855;SDS011;10588;49.542;8.444;2022-08-02T09:02:55;1.35;;;0.90;;
20855;SDS011;10588;49.542;8.444;2022-08-02T09:05:21;3.55;;;0.70;;
20855;SDS011;10588;49.542;8.444;2022-08-02T09:07:48;2.03;;;0.88;;
20855;SDS011;10588;49.542;8.444;2022-08-02T09:13:07;1.00;;;0.70;;
20855;SDS011;10588;49.542;8.444;2022-08-02T09:15:36;0.80;;;0.70;;
20855;SDS011;10588;49.542;8.444;2022-08-02T09:18:03;0.77;;;0.70;;
20855;SDS011;10588;49.542;8.444;2022-08-02T09:20:31;1.30;;;0.70;;
20855;SDS011;10588;49.542;8.444;2022-08-02T09:23:10;0.75;;;0.60;;
20855;SDS011;10588;49.542;8.444;2022-08-02T09:25:36;1.52;;;0.70;;
20855;SDS011;10588;49.542;8.444;2022-08-02T09:28:02;0.60;;;0.60;;
20855;SDS011;10588;49.542;8.444;2022-08-02T09:30:29;7.00;;;0.90;;
20855;SDS011;10588;49.542;8.444;2022-08-02T09:32:54;8.43;;;1.08;;
20855;SDS011;10588;49.542;8.444;2022-08-02T09:35:37;19.48;;;1.83;;
20855;SDS011;10588;49.542;8.444;2022-08-02T09:38:07;11.43;;;2.10;;
20855;SDS011;10588;49.542;8.444;2022-08-02T09:40:34;29.42;;;3.20;;
20855;SDS011;10588;49.542;8.444;2022-08-02T09:43:01;18.00;;;1.90;;
20855;SDS011;10588;49.542;8.444;2022-08-02T09:45:30;20.63;;;2.67;;
20855;SDS011;10588;49.542;8.444;2022-08-02T09:47:59;23.02;;;2.95;;
20855;SDS011;10588;49.542;8.444;2022-08-02T09:50:37;24.25;;;2.78;;
20855;SDS011;10588;49.542;8.444;2022-08-02T09:53:05;23.05;;;3.45;;
20855;SDS011;10588;49.542;8.444;2022-08-02T09:55:36;39.75;;;3.63;;
20855;SDS011;10588;49.542;8.444;2022-08-02T09:58:18;18.02;;;2.80;;
20855;SDS011;10588;49.542;8.444;2022-08-02T10:00:53;14.38;;;1.92;;
20855;SDS011;10588;49.542;8.444;2022-08-02T10:03:20;22.00;;;2.55;;
20855;SDS011;10588;49.542;8.444;2022-08-02T10:05:50;23.98;;;2.33;;
20855;SDS011;10588;49.542;8.444;2022-08-02T10:08:22;16.45;;;2.05;;
20855;SDS011;10588;49.542;8.444;2022-08-02T10:10:48;21.50;;;2.60;;
20855;SDS011;10588;49.542;8.444;2022-08-02T10:13:24;15.90;;;2.30;;
20855;SDS011;10588;49.542;8.444;2022-08-02T10:15:59;12.90;;;1.90;;
20855;SDS011;10588;49.542;8.444;2022-08-02T10:18:27;11.02;;;1.77;;
20855;SDS011;10588;49.542;8.444;2022-08-02T10:20:53;12.85;;;2.10;;
20855;SDS011;10588;49.542;8.444;2022-08-02T10:23:21;14.05;;;2.13;;
20855;SDS011;10588;49.542;8.444;2022-08-02T10:25:50;14.60;;;2.17;;
20855;SDS011;10588;49.542;8.444;2022-08-02T10:28:17;13.32;;;1.98;;
20855;SDS011;10588;49.542;8.444;2022-08-02T10:30:48;12.32;;;1.80;;
20855;SDS011;10588;49.542;8.444;2022-08-02T10:33:15;8.25;;;2.08;;
20855;SDS011;10588;49.542;8.444;2022-08-02T10:35:42;9.20;;;1.80;;
20855;SDS011;10588;49.542;8.444;2022-08-02T10:38:10;4.78;;;1.30;;
20855;SDS011;10588;49.542;8.444;2022-08-02T10:40:43;5.68;;;1.33;;
20855;SDS011;10588;49.542;8.444;2022-08-02T10:43:10;8.23;;;1.50;;
20855;SDS011;10588;49.542;8.444;2022-08-02T10:45:37;9.05;;;1.60;;
20855;SDS011;10588;49.542;8.444;2022-08-02T10:48:07;12.15;;;2.00;;
20855;SDS011;10588;49.542;8.444;2022-08-02T10:55:44;7.30;;;1.20;;
20855;SDS011;10588;49.542;8.444;2022-08-02T10:58:17;4.07;;;1.35;;
20855;SDS011;10588;49.542;8.444;2022-08-02T11:00:45;4.50;;;1.50;;
20855;SDS011;10588;49.542;8.444;2022-08-02T11:06:08;3.13;;;1.00;;
20855;SDS011;10588;49.542;8.444;2022-08-02T11:08:36;3.70;;;1.25;;
20855;SDS011;10588;49.542;8.444;2022-08-02T11:19:21;5.07;;;0.93;;
20855;SDS011;10588;49.542;8.444;2022-08-02T11:24:29;1.65;;;0.90;;
20855;SDS011;10588;49.542;8.444;2022-08-02T11:27:00;3.08;;;1.00;;
20855;SDS011;10588;49.542;8.444;2022-08-02T11:29:40;5.32;;;1.20;;
20855;SDS011;10588;49.542;8.444;2022-08-02T11:32:27;2.08;;;1.00;;
20855;SDS011;10588;49.542;8.444;2022-08-02T11:34:53;2.08;;;0.80;;
20855;SDS011;10588;49.542;8.444;2022-08-02T11:37:28;0.98;;;0.80;;
20855;SDS011;10588;49.542;8.444;2022-08-02T11:39:55;1.67;;;0.90;;
20855;SDS011;10588;49.542;8.444;2022-08-02T11:42:21;1.65;;;0.90;;
20855;SDS011;10588;49.542;8.444;2022-08-02T11:44:54;1.27;;;0.80;;
20855;SDS011;10588;49.542;8.444;2022-08-02T11:47:20;1.20;;;0.70;;
20855;SDS011;10588;49.542;8.444;2022-08-02T11:49:45;1.50;;;0.80;;
20855;SDS011;10588;49.542;8.444;2022-08-02T11:52:11;1.38;;;0.60;;
20855;SDS011;10588;49.542;8.444;2022-08-02T11:54:38;1.00;;;0.80;;
20855;SDS011;10588;49.542;8.444;2022-08-02T11:59:40;1.33;;;0.63;;
20855;SDS011;10588;49.542;8.444;2022-08-02T12:02:07;2.00;;;0.70;;
20855;SDS011;10588;49.542;8.444;2022-08-02T12:04:33;1.50;;;0.85;;
20855;SDS011;10588;49.542;8.444;2022-08-02T12:06:59;2.22;;;0.70;;
20855;SDS011;10588;49.542;8.444;2022-08-02T12:09:27;2.38;;;0.68;;
20855;SDS011;10588;49.542;8.444;2022-08-02T12:11:55;1.40;;;0.80;;
20855;SDS011;10588;49.542;8.444;2022-08-02T12:14:22;1.88;;;0.70;;
20855;SDS011;10588;49.542;8.444;2022-08-02T12:16:49;1.23;;;0.63;;
20855;SDS011;10588;49.542;8.444;2022-08-02T12:19:34;1.33;;;0.80;;
20855;SDS011;10588;49.542;8.444;2022-08-02T12:22:14;1.30;;;0.77;;
20855;SDS011;10588;49.542;8.444;2022-08-02T12:24:45;2.83;;;1.00;;
20855;SDS011;10588;49.542;8.444;2022-08-02T12:27:29;0.80;;;0.70;;
20855;SDS011;10588;49.542;8.444;2022-08-02T12:30:03;1.50;;;0.68;;
20855;SDS011;10588;49.542;8.444;2022-08-02T12:32:33;0.80;;;0.80;;
20855;SDS011;10588;49.542;8.444;2022-08-02T12:35:10;1.05;;;0.70;;
20855;SDS011;10588;49.542;8.444;2022-08-02T12:37:42;1.48;;;0.65;;
20855;SDS011;10588;49.542;8.444;2022-08-02T12:40:25;1.30;;;0.75;;
20855;SDS011;10588;49.542;8.444;2022-08-02T12:45:22;2.60;;;0.60;;
20855;SDS011;10588;49.542;8.444;2022-08-02T12:47:49;0.68;;;0.68;;
20855;SDS011;10588;49.542;8.444;2022-08-02T12:50:30;0.75;;;0.68;;
20855;SDS011;10588;49.542;8.444;2022-08-02T12:55:34;0.93;;;0.68;;
20855;SDS011;10588;49.542;8.444;2022-08-02T12:58:05;0.70;;;0.70;;
20855;SDS011;10588;49.542;8.444;2022-08-02T13:02:58;0.60;;;0.60;;
20855;SDS011;10588;49.542;8.444;2022-08-02T13:05:25;1.58;;;0.70;;
20855;SDS011;10588;49.542;8.444;2022-08-02T13:07:52;1.10;;;0.90;;
20855;SDS011;10588;49.542;8.444;2022-08-02T13:10:18;1.73;;;0.70;;
20855;SDS011;10588;49.542;8.444;2022-08-02T13:12:44;0.52;;;0.52;;
20855;SDS011;10588;49.542;8.444;2022-08-02T13:15:10;0.77;;;0.60;;
20855;SDS011;10588;49.542;8.444;2022-08-02T13:17:36;0.60;;;0.60;;
20855;SDS011;10588;49.542;8.444;2022-08-02T13:20:03;1.75;;;0.65;;
20855;SDS011;10588;49.542;8.444;2022-08-02T13:22:30;1.00;;;0.63;;
20855;SDS011;10588;49.542;8.444;2022-08-02T13:24:55;1.52;;;0.70;;
20855;SDS011;10588;49.542;8.444;2022-08-02T13:27:21;0.60;;;0.60;;
20855;SDS011;10588;49.542;8.444;2022-08-02T13:29:47;0.77;;;0.60;;
20855;SDS011;10588;49.542;8.444;2022-08-02T13:32:14;0.65;;;0.65;;
20855;SDS011;10588;49.542;8.444;2022-08-02T13:34:40;0.60;;;0.60;;
20855;SDS011;10588;49.542;8.444;2022-08-02T13:37:05;0.70;;;0.63;;
20855;SDS011;10588;49.542;8.444;2022-08-02T13:39:31;0.60;;;0.52;;
20855;SDS011;10588;49.542;8.444;2022-08-02T13:41:56;0.70;;;0.70;;
20855;SDS011;10588;49.542;8.444;2022-08-02T13:44:22;0.70;;;0.52;;
20855;SDS011;10588;49.542;8.444;2022-08-02T13:46:48;0.90;;;0.60;;
20855;SDS011;10588;49.542;8.444;2022-08-02T13:49:13;1.45;;;0.50;;
20855;SDS011;10588;49.542;8.444;2022-08-02T13:51:39;1.00;;;0.57;;
20855;SDS011;10588;49.542;8.444;2022-08-02T13:54:05;1.90;;;0.70;;
20855;SDS011;10588;49.542;8.444;2022-08-02T13:56:30;0.65;;;0.50;;
20855;SDS011;10588;49.542;8.444;2022-08-02T13:58:56;3.58;;;0.80;;
20855;SDS011;10588;49.542;8.444;2022-08-02T14:01:25;6.97;;;1.10;;
20855;SDS011;10588;49.542;8.444;2022-08-02T14:03:51;8.30;;;0.82;;
20855;SDS011;10588;49.542;8.444;2022-08-02T14:06:18;3.67;;;0.75;;
20855;SDS011;10588;49.542;8.444;2022-08-02T14:08:47;3.83;;;0.80;;
20855;SDS011;10588;49.542;8.444;2022-08-02T14:11:13;6.32;;;0.70;;
20855;SDS011;10588;49.542;8.444;2022-08-02T14:13:38;3.17;;;0.80;;
20855;SDS011;10588;49.542;8.444;2022-08-02T14:16:04;11.00;;;1.05;;
20855;SDS011;10588;49.542;8.444;2022-08-02T14:18:30;10.77;;;1.20;;
20855;SDS011;10588;49.542;8.444;2022-08-02T14:20:56;4.97;;;1.17;;
20855;SDS011;10588;49.542;8.444;2022-08-02T14:23:21;3.20;;;0.98;;
20855;SDS011;10588;49.542;8.444;2022-08-02T14:25:47;4.00;;;0.90;;
20855;SDS011;10588;49.542;8.444;2022-08-02T14:28:13;2.45;;;0.77;;
20855;SDS011;10588;49.542;8.444;2022-08-02T14:30:38;4.85;;;1.00;;
20855;SDS011;10588;49.542;8.444;2022-08-02T14:33:04;1.33;;;0.50;;
20855;SDS011;10588;49.542;8.444;2022-08-02T14:35:30;1.10;;;0.70;;
20855;SDS011;10588;49.542;8.444;2022-08-02T14:37:56;1.73;;;0.60;;
20855;SDS011;10588;49.542;8.444;2022-08-02T14:40:21;3.00;;;0.63;;
20855;SDS011;10588;49.542;8.444;2022-08-02T14:42:47;6.70;;;0.75;;
20855;SDS011;10588;49.542;8.444;2022-08-02T14:45:15;3.22;;;1.05;;
20855;SDS011;10588;49.542;8.444;2022-08-02T14:47:42;6.63;;;0.90;;
20855;SDS011;10588;49.542;8.444;2022-08-02T14:50:08;7.60;;;1.00;;
20855;SDS011;10588;49.542;8.444;2022-08-02T14:52:35;8.95;;;1.35;;
20855;SDS011;10588;49.542;8.444;2022-08-02T14:55:01;5.28;;;1.00;;
20855;SDS011;10588;49.542;8.444;2022-08-02T14:57:29;5.13;;;0.95;;
20855;SDS011;10588;49.542;8.444;2022-08-02T14:59:55;10.77;;;1.40;;
20855;SDS011;10588;49.542;8.444;2022-08-02T15:02:24;9.05;;;1.30;;
20855;SDS011;10588;49.542;8.444;2022-08-02T15:04:50;8.90;;;1.10;;
20855;SDS011;10588;49.542;8.444;2022-08-02T15:07:16;8.35;;;1.20;;
20855;SDS011;10588;49.542;8.444;2022-08-02T15:09:41;5.68;;;0.95;;
20855;SDS011;10588;49.542;8.444;2022-08-02T15:12:08;3.17;;;0.90;;
20855;SDS011;10588;49.542;8.444;2022-08-02T15:14:35;4.13;;;0.80;;
20855;SDS011;10588;49.542;8.444;2022-08-02T15:17:00;5.90;;;1.00;;
20855;SDS011;10588;49.542;8.444;2022-08-02T15:19:26;3.40;;;1.00;;
20855;SDS011;10588;49.542;8.444;2022-08-02T15:21:52;6.13;;;0.90;;
20855;SDS011;10588;49.542;8.444;2022-08-02T15:24:17;3.92;;;1.10;;
20855;SDS011;10588;49.542;8.444;2022-08-02T15:26:43;3.63;;;0.70;;
20855;SDS011;10588;49.542;8.444;2022-08-02T15:29:08;2.53;;;0.95;;
20855;SDS011;10588;49.542;8.444;2022-08-02T15:31:34;3.60;;;0.82;;
20855;SDS011;10588;49.542;8.444;2022-08-02T15:33:59;4.10;;;0.90;;
20855;SDS011;10588;49.542;8.444;2022-08-02T15:36:25;4.43;;;0.98;;
20855;SDS011;10588;49.542;8.444;2022-08-02T15:38:51;2.38;;;0.90;;
20855;SDS011;10588;49.542;8.444;2022-08-02T15:41:16;4.35;;;1.15;;
20855;SDS011;10588;49.542;8.444;2022-08-02T15:43:42;3.72;;;1.00;;
20855;SDS011;10588;49.542;8.444;2022-08-02T15:46:07;3.13;;;0.77;;